< Typhoon 197206 1972 Season Typhoon 197208 >
Typhoon 197207 (RITA)
General InformationTrack Information on Google Maps || Disaster Info.ResourceGoogle EarthGE AnimationAtom FeedGeoJSON
Detalied Best Track (Time Zone = UTC)
Year Month Day Hour Lat. Long. Pressure (hPa) Wind (kt) Class Image
1972 7 5 12 9.0 150.0 1008 0 2 No
1972 7 5 18 9.5 149.5 1006 0 2 No
1972 7 6 00 10.0 149.0 1006 0 2 No
1972 7 6 06 10.0 148.0 1006 0 2 No
1972 7 6 12 10.0 147.0 1006 0 2 No
1972 7 6 18 10.0 146.0 1006 0 2 No
1972 7 7 00 10.3 145.2 1006 0 2 No
1972 7 7 06 10.4 144.4 1004 0 2 No
1972 7 7 12 10.5 143.5 992 0 9 No
1972 7 7 18 10.7 142.7 990 0 9 No
1972 7 8 00 11.2 141.9 985 0 9 No
1972 7 8 06 11.6 141.4 980 0 9 No
1972 7 8 12 12.1 141.0 970 0 9 No
1972 7 8 18 12.6 140.5 960 0 9 No
1972 7 9 00 13.3 139.8 950 0 9 No
1972 7 9 06 14.0 139.3 945 0 9 No
1972 7 9 12 14.8 138.6 935 0 9 No
1972 7 9 18 15.5 137.8 925 0 9 No
1972 7 10 00 16.1 137.2 930 0 9 No
1972 7 10 06 16.8 136.3 920 0 9 No
1972 7 10 12 17.3 135.3 915 0 9 No
1972 7 10 18 17.4 134.6 915 0 9 No
1972 7 11 00 17.6 134.2 910 0 9 No
1972 7 11 06 17.8 133.8 915 0 9 No
1972 7 11 12 18.0 133.4 925 0 9 No
1972 7 11 18 18.3 133.0 935 0 9 No
1972 7 12 00 18.2 132.9 940 0 9 No
1972 7 12 06 18.2 132.7 945 0 9 No
1972 7 12 12 18.2 132.6 945 0 9 No
1972 7 12 18 18.1 132.5 950 0 9 No
1972 7 13 00 18.0 132.4 950 0 9 No
1972 7 13 06 18.0 132.6 955 0 9 No
1972 7 13 12 18.7 133.6 960 0 9 No
1972 7 13 18 19.3 134.4 965 0 9 No
1972 7 14 00 19.7 134.8 965 0 9 No
1972 7 14 06 20.3 135.3 965 0 9 No
1972 7 14 12 20.6 135.6 965 0 9 No
1972 7 14 18 20.9 135.6 965 0 9 No
1972 7 15 00 21.1 135.4 965 0 9 No
1972 7 15 06 21.2 135.3 965 0 9 No
1972 7 15 12 21.3 135.2 965 0 9 No
1972 7 15 18 21.4 135.1 965 0 9 No
1972 7 16 00 21.5 135.0 965 0 9 No
1972 7 16 06 21.6 134.9 965 0 9 No
1972 7 16 12 21.8 134.7 965 0 9 No
1972 7 16 18 22.2 134.4 965 0 9 No
1972 7 17 00 22.6 134.1 965 0 9 No
1972 7 17 06 23.0 133.8 965 0 9 No
1972 7 17 12 23.3 133.9 965 0 9 No
1972 7 17 18 23.4 133.9 960 0 9 No
1972 7 18 00 23.7 134.0 960 0 9 No
1972 7 18 06 24.3 134.2 960 0 9 No
1972 7 18 12 24.9 134.4 960 0 9 No
1972 7 18 18 25.5 134.5 960 0 9 No
1972 7 19 00 26.3 134.4 960 0 9 No
1972 7 19 06 26.8 133.9 960 0 9 No
1972 7 19 12 27.3 133.1 965 0 9 No
1972 7 19 18 27.6 132.4 965 0 9 No
1972 7 20 00 28.2 131.6 965 0 9 No
1972 7 20 06 28.5 130.6 965 0 9 No
1972 7 20 12 28.7 129.5 970 0 9 No
1972 7 20 18 28.8 128.7 970 0 9 No
1972 7 21 00 28.8 128.1 970 0 9 No
1972 7 21 06 28.8 127.4 970 0 9 No
1972 7 21 12 28.6 126.7 970 0 9 No
1972 7 21 18 28.4 126.2 965 0 9 No
1972 7 22 00 28.0 125.8 960 0 9 No
1972 7 22 06 27.6 125.4 960 0 9 No
1972 7 22 12 26.9 125.2 960 0 9 No
1972 7 22 18 26.3 125.2 960 0 9 No
1972 7 23 00 25.5 125.3 960 0 9 No
1972 7 23 06 25.0 125.4 960 0 9 No
1972 7 23 12 24.7 125.5 960 0 9 No
1972 7 23 18 24.7 126.3 960 0 9 No
1972 7 24 00 25.5 126.8 960 0 9 No
1972 7 24 06 26.0 127.3 955 0 9 No
1972 7 24 12 26.7 127.6 955 0 9 No
1972 7 24 18 27.5 127.8 955 0 9 No
1972 7 25 00 28.2 128.0 955 0 9 No
1972 7 25 06 29.3 127.7 955 0 9 No
1972 7 25 12 30.5 126.7 960 0 9 No
1972 7 25 18 31.8 125.8 965 0 9 No
1972 7 26 00 34.6 125.0 970 0 9 No
1972 7 26 06 37.0 123.0 970 0 9 No
1972 7 26 12 38.5 120.8 975 0 6 No
1972 7 26 18 39.0 118.9 984 0 6 No
1972 7 27 00 39.1 117.3 988 0 6 No
1972 7 27 06 39.2 116.3 990 0 6 No
1972 7 27 12 40.9 113.4 996 0 6 No
Japan Meteorological Agency Best Track Data | Correction Date : 1989-06-01
< Typhoon 197206 1972 Season Typhoon 197208 >

Help